Aviation Digital Data Service (ADDS)

Output produced by TAFs form (1500 UTC 28 June 2016)
found at http://aviationweather.gov/adds/tafs/
 
KGJT 281439Z 2815/2912 15007KT P6SM SCT250 
     FM281700 18006KT P6SM SCT250 
     FM282000 29007KT P6SM SCT110 SCT250 
     FM290200 11007KT P6SM FEW110 BKN250